createdAt,value
2018-08-23T00:02:25.920Z,73.02
2018-08-23T00:04:57.959Z,74.08
2018-08-23T00:07:29.911Z,74.67
2018-08-23T00:10:04.405Z,74.07
2018-08-23T00:12:43.955Z,74.80
2018-08-23T00:15:18.948Z,74.76
2018-08-23T00:17:50.942Z,72.74
2018-08-23T00:20:24.091Z,72.36
2018-08-23T00:22:56.077Z,72.67
2018-08-23T00:25:28.081Z,72.74
2018-08-23T00:28:00.127Z,73.22
2018-08-23T00:30:32.951Z,73.87
2018-08-23T00:33:06.311Z,74.41
2018-08-23T00:35:38.605Z,75.34
2018-08-23T00:38:10.599Z,75.77
2018-08-23T00:40:43.855Z,75.11
2018-08-23T00:43:15.811Z,75.17
2018-08-23T00:45:47.791Z,75.73
2018-08-23T00:48:19.791Z,75.54
2018-08-23T00:50:54.584Z,76.11
2018-08-23T00:53:27.571Z,75.18
2018-08-23T00:56:14.268Z,74.94
2018-08-23T00:58:51.040Z,74.98
2018-08-23T01:01:23.037Z,75.75
2018-08-23T01:03:55.006Z,76.28
2018-08-23T01:06:39.267Z,76.50
2018-08-23T01:09:12.183Z,77.01
2018-08-23T01:11:45.194Z,77.51
2018-08-23T01:14:17.198Z,77.81
2018-08-23T01:17:03.387Z,77.84
2018-08-23T01:19:41.097Z,77.60
2018-08-23T01:22:13.159Z,78.40
2018-08-23T01:24:47.306Z,78.58
2018-08-23T01:27:51.338Z,78.36
2018-08-23T01:30:23.794Z,79.54
2018-08-23T01:32:55.801Z,79.39
2018-08-23T01:35:28.275Z,79.83
2018-08-23T01:38:00.285Z,79.02
2018-08-23T01:40:32.323Z,79.00
2018-08-23T01:43:04.367Z,78.80
2018-08-23T01:45:36.399Z,78.80
2018-08-23T01:48:09.195Z,78.84
2018-08-23T01:50:41.166Z,78.89
2018-08-23T01:53:13.169Z,79.11
2018-08-23T01:55:45.164Z,78.18
2018-08-23T01:58:17.182Z,78.79
2018-08-23T02:01:03.914Z,80.12
2018-08-23T02:03:35.918Z,80.25
2018-08-23T02:06:07.909Z,79.69
2018-08-23T02:08:41.633Z,80.51
2018-08-23T02:11:13.942Z,80.96
2018-08-23T02:13:47.937Z,80.87
2018-08-23T02:16:19.906Z,81.93
2018-08-23T02:18:52.282Z,82.22
2018-08-23T02:21:24.315Z,81.96
2018-08-23T02:23:56.322Z,80.82
2018-08-23T02:26:28.363Z,81.41
2018-08-23T02:29:00.365Z,79.91
2018-08-23T02:31:32.357Z,80.21
2018-08-23T02:34:04.482Z,81.04
2018-08-23T02:36:36.511Z,80.52
2018-08-23T02:39:08.876Z,81.14
2018-08-23T02:41:40.890Z,80.61
2018-08-23T02:44:12.863Z,81.01
2018-08-23T02:46:44.848Z,79.61
2018-08-23T02:49:16.888Z,80.64
2018-08-23T02:51:49.810Z,79.19
2018-08-23T02:54:22.606Z,78.27
2018-08-23T02:56:56.778Z,78.06
2018-08-23T02:59:29.653Z,77.74
2018-08-23T03:02:01.644Z,77.21
2018-08-23T03:04:33.638Z,77.12
2018-08-23T03:07:05.664Z,76.82
2018-08-23T03:09:38.744Z,76.50
2018-08-23T03:12:16.549Z,76.74
2018-08-23T03:14:48.535Z,76.47
2018-08-23T03:17:22.455Z,76.35
2018-08-23T03:20:17.864Z,77.27
2018-08-23T03:22:51.163Z,76.16
2018-08-23T03:25:24.291Z,76.94
2018-08-23T03:27:56.291Z,76.66
2018-08-23T03:30:28.400Z,76.68
2018-08-23T03:33:00.400Z,76.19
2018-08-23T03:35:32.438Z,77.05
2018-08-23T03:38:04.462Z,76.85
2018-08-23T03:40:36.485Z,76.66
2018-08-23T03:43:08.539Z,76.85
2018-08-23T03:45:40.519Z,76.80
2018-08-23T03:48:12.527Z,76.06
2018-08-23T03:50:50.241Z,76.07
2018-08-23T03:53:24.311Z,76.27
2018-08-23T03:56:07.316Z,74.93
2018-08-23T03:58:39.300Z,73.98
2018-08-23T04:01:12.659Z,74.38
2018-08-23T04:03:44.687Z,75.74
2018-08-23T04:06:36.336Z,76.72
2018-08-23T04:09:08.607Z,77.33
2018-08-23T04:11:40.628Z,77.41
2018-08-23T04:14:12.613Z,77.99
2018-08-23T04:16:44.608Z,78.15
2018-08-23T04:19:16.632Z,78.48
2018-08-23T04:21:48.659Z,77.72
2018-08-23T04:24:20.678Z,77.48
2018-08-23T04:26:52.699Z,76.37
2018-08-23T04:29:32.240Z,75.58
2018-08-23T04:32:04.210Z,75.28
2018-08-23T04:34:36.661Z,74.56
2018-08-23T04:37:08.668Z,72.61
2018-08-23T04:39:45.613Z,71.31
2018-08-23T04:42:17.588Z,70.09
2018-08-23T04:44:50.595Z,69.88
2018-08-23T04:47:23.627Z,68.95
2018-08-23T04:49:55.578Z,69.76
2018-08-23T04:52:27.591Z,69.15
2018-08-23T04:54:59.564Z,68.88
2018-08-23T04:57:31.538Z,68.34
2018-08-23T05:00:03.611Z,66.48
2018-08-23T05:02:35.611Z,66.69
2018-08-23T05:05:07.627Z,66.45
2018-08-23T05:07:39.618Z,66.19
2018-08-23T05:10:11.794Z,65.29
2018-08-23T05:12:43.777Z,64.13
2018-08-23T05:15:15.920Z,63.11
2018-08-23T05:17:47.919Z,64.17
2018-08-23T05:20:19.908Z,63.28
2018-08-23T05:23:00.354Z,63.78
2018-08-23T05:25:32.327Z,64.20
2018-08-23T05:28:13.138Z,64.15
2018-08-23T05:30:45.871Z,62.91
2018-08-23T05:33:20.762Z,62.08
2018-08-23T05:35:52.755Z,59.00
2018-08-23T05:38:24.751Z,57.54
2018-08-23T05:41:02.491Z,55.18
2018-08-23T05:43:34.498Z,55.67
2018-08-23T05:46:06.906Z,53.71
2018-08-23T05:48:38.956Z,50.87
2018-08-23T05:51:13.091Z,47.75
2018-08-23T05:53:46.826Z,45.11
2018-08-23T05:56:18.903Z,45.00
2018-08-23T05:58:53.003Z,43.01
2018-08-23T06:01:24.976Z,46.74
2018-08-23T06:03:56.964Z,46.91
2018-08-23T06:06:29.058Z,46.90
2018-08-23T06:09:02.011Z,43.82
2018-08-23T06:11:33.978Z,42.76
2018-08-23T06:14:06.026Z,44.73
2018-08-23T06:16:43.739Z,46.77
2018-08-23T06:19:15.743Z,48.69
2018-08-23T06:21:48.839Z,48.67
2018-08-23T06:24:20.853Z,50.34
2018-08-23T06:26:52.906Z,51.46
2018-08-23T06:29:32.851Z,56.07
2018-08-23T06:32:07.150Z,59.26
2018-08-23T06:34:41.804Z,55.56
2018-08-23T06:37:14.296Z,57.60
2018-08-23T06:39:46.722Z,56.03
2018-08-23T06:42:18.718Z,57.49
2018-08-23T06:44:52.399Z,57.85
2018-08-23T06:47:25.847Z,60.12
2018-08-23T06:49:57.848Z,63.99
2018-08-23T06:52:36.082Z,63.93
2018-08-23T06:55:13.592Z,64.25
2018-08-23T06:57:47.748Z,63.75
2018-08-23T07:00:24.779Z,63.07
2018-08-23T07:02:57.439Z,64.17
2018-08-23T07:05:29.494Z,64.22
2018-08-23T07:08:01.515Z,64.37
2018-08-23T07:10:33.586Z,73.46
2018-08-23T07:13:05.659Z,75.80
2018-08-23T07:15:39.700Z,84.05
2018-08-23T07:18:15.203Z,87.45
2018-08-23T07:20:47.175Z,90.49
2018-08-23T07:23:29.227Z,93.74
2018-08-23T07:26:03.059Z,93.69
2018-08-23T07:28:36.731Z,95.27
2018-08-23T07:31:08.752Z,96.13
2018-08-23T07:33:42.214Z,95.51
2018-08-23T07:36:25.593Z,93.98
2018-08-23T07:38:57.879Z,97.16
2018-08-23T07:41:29.896Z,99.32
2018-08-23T07:44:01.891Z,100.00
2018-08-23T07:46:33.899Z,99.99
2018-08-23T07:49:06.953Z,98.69
2018-08-23T07:51:40.207Z,98.87
2018-08-23T07:54:17.478Z,100.00
2018-08-23T07:56:49.475Z,97.33
2018-08-23T07:59:21.470Z,95.37
2018-08-23T08:01:53.447Z,97.03
2018-08-23T08:04:26.504Z,98.81
2018-08-23T08:06:58.535Z,99.92
2018-08-23T08:09:30.563Z,100.00
2018-08-23T08:12:02.622Z,100.00
2018-08-23T08:14:36.099Z,100.00
2018-08-23T08:17:15.480Z,100.00
2018-08-23T08:19:56.403Z,100.00
2018-08-23T08:22:28.660Z,100.00
2018-08-23T08:25:33.015Z,100.00
2018-08-23T08:28:09.644Z,100.00
2018-08-23T08:30:43.651Z,100.00
2018-08-23T08:33:16.810Z,100.00
2018-08-23T08:35:48.967Z,100.00
2018-08-23T08:38:20.963Z,98.26
2018-08-23T08:40:52.931Z,99.73
2018-08-23T08:43:25.146Z,100.00
2018-08-23T08:45:58.227Z,99.68
2018-08-23T08:48:31.907Z,98.58
2018-08-23T08:51:32.199Z,97.84
2018-08-23T08:54:04.198Z,99.84
2018-08-23T08:56:45.941Z,97.24
2018-08-23T08:59:17.935Z,99.55
2018-08-23T09:01:49.907Z,100.00
2018-08-23T09:04:27.673Z,100.00
2018-08-23T09:06:59.643Z,100.00
2018-08-23T09:09:33.950Z,100.00
2018-08-23T09:12:10.015Z,100.00
2018-08-23T09:14:42.651Z,100.00
2018-08-23T09:17:32.163Z,100.00
2018-08-23T09:20:07.491Z,100.00
2018-08-23T09:22:41.668Z,100.00
2018-08-23T09:25:19.949Z,100.00
2018-08-23T09:27:52.156Z,100.00
2018-08-23T09:30:25.553Z,100.00
2018-08-23T09:33:02.099Z,100.00
2018-08-23T09:35:34.501Z,100.00
2018-08-23T09:38:09.253Z,100.00
2018-08-23T09:40:41.322Z,100.00
2018-08-23T09:43:13.270Z,100.00
2018-08-23T09:45:45.388Z,97.95
2018-08-23T09:48:17.351Z,94.46
2018-08-23T09:50:49.404Z,92.53
2018-08-23T09:53:23.856Z,91.00
2018-08-23T09:55:56.363Z,88.57
2018-08-23T09:58:33.931Z,87.67
2018-08-23T10:01:11.551Z,85.67
2018-08-23T10:03:49.239Z,85.01
2018-08-23T10:06:21.233Z,83.57
2018-08-23T10:09:08.042Z,75.65
2018-08-23T10:11:45.761Z,79.11
2018-08-23T10:14:23.279Z,74.42
2018-08-23T10:17:00.986Z,74.53
2018-08-23T10:19:38.723Z,73.73
2018-08-23T10:22:16.469Z,69.25
2018-08-23T10:24:48.579Z,64.54
2018-08-23T10:27:20.572Z,67.25
2018-08-23T10:29:52.534Z,62.42
2018-08-23T10:32:24.552Z,63.27
2018-08-23T10:34:56.579Z,62.50
2018-08-23T10:37:28.580Z,54.66
2018-08-23T10:40:00.607Z,51.10
2018-08-23T10:42:33.627Z,50.70
2018-08-23T10:45:05.645Z,53.73
2018-08-23T10:47:43.436Z,54.62
2018-08-23T10:50:15.412Z,53.02
2018-08-23T10:52:47.443Z,50.32
2018-08-23T10:55:19.495Z,55.15
2018-08-23T10:57:51.522Z,57.94
2018-08-23T11:00:24.579Z,55.05
2018-08-23T11:02:56.587Z,53.39
2018-08-23T11:05:28.633Z,48.39
2018-08-23T11:08:06.293Z,46.31
2018-08-23T11:10:44.029Z,45.48
2018-08-23T11:13:21.735Z,50.36
2018-08-23T11:15:59.375Z,47.94
2018-08-23T11:18:37.003Z,53.28
2018-08-23T11:21:12.912Z,60.62
2018-08-23T11:23:45.575Z,63.33
2018-08-23T11:26:20.615Z,61.50
2018-08-23T11:28:52.609Z,61.33
2018-08-23T11:31:27.583Z,58.45
2018-08-23T11:33:59.678Z,56.91
2018-08-23T11:36:31.675Z,55.71
2018-08-23T11:39:05.430Z,54.28
2018-08-23T11:41:37.438Z,51.84
2018-08-23T11:44:09.399Z,50.57
2018-08-23T11:46:41.422Z,47.44
2018-08-23T11:49:14.487Z,47.69
2018-08-23T11:51:46.537Z,40.52
2018-08-23T11:54:18.512Z,35.72
2018-08-23T11:56:50.530Z,35.38
2018-08-23T11:59:22.539Z,35.31
2018-08-23T12:01:54.543Z,34.41
2018-08-23T12:04:26.571Z,37.84
2018-08-23T12:06:58.563Z,35.79
2018-08-23T12:09:31.766Z,36.12
2018-08-23T12:12:04.122Z,43.23
2018-08-23T12:14:37.174Z,43.80
2018-08-23T12:17:09.152Z,42.93
2018-08-23T12:19:41.177Z,49.69
2018-08-23T12:22:13.192Z,49.82
2018-08-23T12:24:45.195Z,50.38
2018-08-23T12:27:17.231Z,48.88
2018-08-23T12:29:49.629Z,47.82
2018-08-23T12:32:25.171Z,45.91
2018-08-23T12:34:57.183Z,43.64
2018-08-23T12:37:34.985Z,43.90
2018-08-23T12:40:12.710Z,44.59
2018-08-23T12:42:47.661Z,45.80
2018-08-23T12:45:19.684Z,44.40
2018-08-23T12:47:51.671Z,43.26
2018-08-23T12:50:23.667Z,44.30
2018-08-23T12:52:55.649Z,41.41
2018-08-23T12:55:27.668Z,42.91
2018-08-23T12:57:59.638Z,41.47
2018-08-23T13:00:31.659Z,41.25
2018-08-23T13:03:04.161Z,42.46
2018-08-23T13:05:36.663Z,40.60
2018-08-23T13:08:08.661Z,41.33
2018-08-23T13:10:40.642Z,39.27
2018-08-23T13:13:12.631Z,38.86
2018-08-23T13:15:44.614Z,40.63
2018-08-23T13:18:16.595Z,39.41
2018-08-23T13:20:48.622Z,39.94
2018-08-23T13:23:20.664Z,40.92
2018-08-23T13:25:53.655Z,42.17
2018-08-23T13:28:26.662Z,38.66
2018-08-23T13:30:58.650Z,36.24
2018-08-23T13:33:30.655Z,37.46
2018-08-23T13:36:02.686Z,36.63
2018-08-23T13:38:34.626Z,33.30
2018-08-23T13:41:06.614Z,35.27
2018-08-23T13:43:38.716Z,35.24
2018-08-23T13:46:10.596Z,34.38
2018-08-23T13:48:42.548Z,34.34
2018-08-23T13:51:14.525Z,34.59
2018-08-23T13:53:46.514Z,34.83
2018-08-23T13:56:18.526Z,34.30
2018-08-23T13:58:50.485Z,35.45
2018-08-23T14:01:25.447Z,31.63
2018-08-23T14:03:57.642Z,32.70
2018-08-23T14:06:29.610Z,31.70
2018-08-23T14:09:01.543Z,31.87
2018-08-23T14:11:33.487Z,32.22
2018-08-23T14:14:05.455Z,33.53
2018-08-23T14:16:37.451Z,30.06
2018-08-23T14:19:09.413Z,30.70
2018-08-23T14:21:41.382Z,30.92
2018-08-23T14:24:13.351Z,31.74
2018-08-23T14:26:45.336Z,30.31
2018-08-23T14:29:17.334Z,31.58
2018-08-23T14:31:49.318Z,32.85
2018-08-23T14:34:21.286Z,30.14
2018-08-23T14:36:53.283Z,30.59
2018-08-23T14:39:25.292Z,31.19
2018-08-23T14:41:57.283Z,31.47
2018-08-23T14:44:29.271Z,33.55
2018-08-23T14:47:07.113Z,32.93
2018-08-23T14:49:39.094Z,30.37
2018-08-23T14:52:11.072Z,31.22
2018-08-23T14:54:43.115Z,30.83
2018-08-23T14:57:20.729Z,31.50
2018-08-23T14:59:52.739Z,31.62
2018-08-23T15:02:24.712Z,31.20
2018-08-23T15:04:56.690Z,31.74
2018-08-23T15:07:28.655Z,30.15
2018-08-23T15:10:00.663Z,29.53
2018-08-23T15:12:32.635Z,31.88
2018-08-23T15:15:07.119Z,32.29
2018-08-23T15:17:39.082Z,30.79
2018-08-23T15:20:11.058Z,33.77
2018-08-23T15:22:43.041Z,33.36
2018-08-23T15:25:15.001Z,34.38
2018-08-23T15:27:46.958Z,36.31
2018-08-23T15:30:18.951Z,36.18
2018-08-23T15:32:50.910Z,37.32
2018-08-23T15:35:22.866Z,36.98
2018-08-23T15:37:54.870Z,36.34
2018-08-23T15:40:26.926Z,33.94
2018-08-23T15:42:58.879Z,34.87
2018-08-23T15:45:30.923Z,36.78
2018-08-23T15:48:02.974Z,36.05
2018-08-23T15:50:34.870Z,36.06
2018-08-23T15:53:06.883Z,37.51
2018-08-23T15:55:38.983Z,37.99
2018-08-23T15:58:10.856Z,37.78
2018-08-23T16:00:42.814Z,38.01
2018-08-23T16:03:14.840Z,39.18
2018-08-23T16:05:46.837Z,38.74
2018-08-23T16:08:18.828Z,39.13
2018-08-23T16:10:50.798Z,39.28
2018-08-23T16:13:22.779Z,40.94
2018-08-23T16:16:00.533Z,41.23
2018-08-23T16:18:38.191Z,41.14
2018-08-23T16:21:10.165Z,41.73
2018-08-23T16:23:42.163Z,41.12
2018-08-23T16:26:14.131Z,41.14
2018-08-23T16:28:46.135Z,41.49
2018-08-23T16:31:18.115Z,43.13
2018-08-23T16:33:50.080Z,44.62
2018-08-23T16:36:22.063Z,45.48
2018-08-23T16:38:54.084Z,46.52
2018-08-23T16:41:26.072Z,47.15
2018-08-23T16:43:58.051Z,47.58
2018-08-23T16:46:30.061Z,48.11
2018-08-23T16:49:02.062Z,46.93
2018-08-23T16:51:34.072Z,46.44
2018-08-23T16:54:06.066Z,47.60
2018-08-23T16:56:38.034Z,50.55
2018-08-23T16:59:09.990Z,54.27
2018-08-23T17:01:41.943Z,52.59
2018-08-23T17:04:13.995Z,51.43
2018-08-23T17:06:45.872Z,53.86
2018-08-23T17:09:17.886Z,55.09
2018-08-23T17:11:49.892Z,56.95
2018-08-23T17:14:21.903Z,57.37
2018-08-23T17:16:59.761Z,57.37
2018-08-23T17:19:31.729Z,58.29
2018-08-23T17:22:03.729Z,58.63
2018-08-23T17:24:35.755Z,58.71
2018-08-23T17:27:07.706Z,57.41
2018-08-23T17:29:39.651Z,57.93
2018-08-23T17:32:11.697Z,58.63
2018-08-23T17:34:43.675Z,57.54
2018-08-23T17:37:15.639Z,57.00
2018-08-23T17:39:47.602Z,57.41
2018-08-23T17:42:21.779Z,58.18
2018-08-23T17:44:53.737Z,58.93
2018-08-23T17:47:25.704Z,59.56
2018-08-23T17:49:57.686Z,60.07
2018-08-23T17:52:29.706Z,60.19
2018-08-23T17:55:01.717Z,60.27
2018-08-23T17:57:33.751Z,60.51
2018-08-23T18:00:05.742Z,60.96
2018-08-23T18:02:37.702Z,61.81
2018-08-23T18:05:09.854Z,61.23
2018-08-23T18:07:41.800Z,61.33
2018-08-23T18:10:13.774Z,61.81
2018-08-23T18:12:45.731Z,61.08
2018-08-23T18:15:17.723Z,61.62
2018-08-23T18:17:49.826Z,62.00
2018-08-23T18:20:21.736Z,59.29
2018-08-23T18:22:53.681Z,56.22
2018-08-23T18:25:25.752Z,55.55
2018-08-23T18:27:57.643Z,55.75
2018-08-23T18:30:29.585Z,55.61
2018-08-23T18:33:01.549Z,56.24
2018-08-23T18:35:33.632Z,56.11
2018-08-23T18:38:05.575Z,56.91
2018-08-23T18:40:37.531Z,58.00
2018-08-23T18:43:09.582Z,61.71
2018-08-23T18:45:41.590Z,66.00
2018-08-23T18:48:13.558Z,66.63
2018-08-23T18:50:45.531Z,68.38
2018-08-23T18:53:17.705Z,70.73
2018-08-23T18:55:49.707Z,69.39
2018-08-23T18:58:21.685Z,72.49
2018-08-23T19:00:53.639Z,72.93
2018-08-23T19:03:25.683Z,72.69
2018-08-23T19:05:57.647Z,71.91
2018-08-23T19:08:29.627Z,72.07
2018-08-23T19:11:01.678Z,73.51
2018-08-23T19:13:33.791Z,74.49
2018-08-23T19:16:11.576Z,76.71
2018-08-23T19:18:43.600Z,76.62
2018-08-23T19:21:15.484Z,77.88
2018-08-23T19:23:47.439Z,78.49
2018-08-23T19:26:19.407Z,80.19
2018-08-23T19:28:51.356Z,80.69
2018-08-23T19:31:23.372Z,80.60
2018-08-23T19:33:55.339Z,79.30
2018-08-23T19:36:27.311Z,80.44
2018-08-23T19:38:59.260Z,81.24
2018-08-23T19:41:31.263Z,79.94
2018-08-23T19:44:03.242Z,81.38
2018-08-23T19:46:40.835Z,81.26
2018-08-23T19:49:18.535Z,81.46
2018-08-23T19:51:50.518Z,81.43
2018-08-23T19:54:22.484Z,80.86
2018-08-23T19:56:54.443Z,81.24
2018-08-23T19:59:26.426Z,81.09
2018-08-23T20:01:58.439Z,79.29
2018-08-23T20:04:30.406Z,79.22
2018-08-23T20:07:02.372Z,77.91
2018-08-23T20:09:34.383Z,78.17
2018-08-23T20:12:06.613Z,78.59
2018-08-23T20:14:38.633Z,78.68
2018-08-23T20:17:10.638Z,78.93
2018-08-23T20:19:42.606Z,77.80
2018-08-23T20:22:14.572Z,78.72
2018-08-23T20:24:46.619Z,79.17
2018-08-23T20:27:18.616Z,78.84
2018-08-23T20:29:50.646Z,80.16
2018-08-23T20:32:22.657Z,77.04
2018-08-23T20:34:54.603Z,74.37
2018-08-23T20:37:26.560Z,73.07
2018-08-23T20:39:58.630Z,71.32
2018-08-23T20:42:30.583Z,72.39
2018-08-23T20:45:02.617Z,78.20
2018-08-23T20:47:34.559Z,81.54
2018-08-23T20:50:06.556Z,87.05
2018-08-23T20:52:38.586Z,90.21
2018-08-23T20:55:10.543Z,93.34
2018-08-23T20:57:42.559Z,95.76
2018-08-23T21:00:14.516Z,96.62
2018-08-23T21:02:46.473Z,96.58
2018-08-23T21:05:18.938Z,96.54
2018-08-23T21:07:50.979Z,97.52
2018-08-23T21:10:22.954Z,97.40
2018-08-23T21:12:54.934Z,98.06
2018-08-23T21:15:26.931Z,98.55
2018-08-23T21:17:58.944Z,97.05
2018-08-23T21:20:30.846Z,96.34
2018-08-23T21:23:02.795Z,96.37
2018-08-23T21:25:34.751Z,96.16
2018-08-23T21:28:06.702Z,96.47
2018-08-23T21:30:38.673Z,96.82
2018-08-23T21:33:10.629Z,96.86
2018-08-23T21:35:42.667Z,96.88
2018-08-23T21:38:14.627Z,95.61
2018-08-23T21:40:46.576Z,97.10
2018-08-23T21:43:18.547Z,96.32
2018-08-23T21:45:50.521Z,96.37
2018-08-23T21:48:22.466Z,97.51
2018-08-23T21:50:54.452Z,98.21
2018-08-23T21:53:26.396Z,97.76
2018-08-23T21:55:58.354Z,96.48
2018-08-23T21:58:30.383Z,96.65
2018-08-23T22:01:05.831Z,96.87
2018-08-23T22:03:38.260Z,97.62
2018-08-23T22:06:10.240Z,97.28
2018-08-23T22:08:42.187Z,96.59
2018-08-23T22:11:14.197Z,95.02
2018-08-23T22:13:46.156Z,94.45
2018-08-23T22:16:18.124Z,94.12
2018-08-23T22:18:50.083Z,94.20
2018-08-23T22:21:22.039Z,94.75
2018-08-23T22:23:54.008Z,95.44
2018-08-23T22:26:26.008Z,95.82
2018-08-23T22:28:57.986Z,96.72
2018-08-23T22:31:29.954Z,97.59
2018-08-23T22:34:01.905Z,98.04
2018-08-23T22:36:33.863Z,98.49
2018-08-23T22:39:06.338Z,98.79
2018-08-23T22:41:38.305Z,98.39
2018-08-23T22:44:10.323Z,98.99
2018-08-23T22:46:42.534Z,98.73
2018-08-23T22:49:14.466Z,98.70
2018-08-23T22:51:46.414Z,99.20
2018-08-23T22:54:18.371Z,99.66
2018-08-23T22:56:50.347Z,100.00
2018-08-23T22:59:22.280Z,100.00
2018-08-23T23:01:54.238Z,100.00
2018-08-23T23:04:27.447Z,100.00
2018-08-23T23:06:59.514Z,100.00
2018-08-23T23:09:31.431Z,100.00
2018-08-23T23:12:03.415Z,100.00
2018-08-23T23:14:35.362Z,100.00
2018-08-23T23:17:09.795Z,100.00
2018-08-23T23:19:41.740Z,100.00
2018-08-23T23:22:13.715Z,100.00
2018-08-23T23:24:51.320Z,100.00
2018-08-23T23:27:23.305Z,100.00
2018-08-23T23:29:55.275Z,100.00
2018-08-23T23:32:27.330Z,100.00
2018-08-23T23:34:59.307Z,100.00
2018-08-23T23:37:31.286Z,100.00
2018-08-23T23:40:03.301Z,100.00
2018-08-23T23:42:35.900Z,100.00
2018-08-23T23:45:08.277Z,100.00
2018-08-23T23:47:40.260Z,100.00
2018-08-23T23:50:12.307Z,100.00
2018-08-23T23:52:44.306Z,100.00
2018-08-23T23:55:16.270Z,100.00
2018-08-23T23:57:48.239Z,100.00
